sensor_id;sensor_type;location;lat;lon;timestamp;temperature;humidity
69628;DHT22;56850;51.984;5.088;2023-04-06T00:01:03;9.60;43.10
69628;DHT22;56850;51.984;5.088;2023-04-06T00:03:30;9.70;43.20
69628;DHT22;56850;51.984;5.088;2023-04-06T00:05:58;9.70;43.30
69628;DHT22;56850;51.984;5.088;2023-04-06T00:08:25;9.70;43.20
69628;DHT22;56850;51.984;5.088;2023-04-06T00:10:52;9.60;43.20
69628;DHT22;56850;51.984;5.088;2023-04-06T00:13:20;9.60;43.10
69628;DHT22;56850;51.984;5.088;2023-04-06T00:15:47;9.60;43.20
69628;DHT22;56850;51.984;5.088;2023-04-06T00:18:14;9.60;43.00
69628;DHT22;56850;51.984;5.088;2023-04-06T00:20:41;9.50;43.00
69628;DHT22;56850;51.984;5.088;2023-04-06T00:23:07;9.50;43.00
69628;DHT22;56850;51.984;5.088;2023-04-06T00:25:34;9.50;43.10
69628;DHT22;56850;51.984;5.088;2023-04-06T00:28:02;9.50;42.90
69628;DHT22;56850;51.984;5.088;2023-04-06T00:30:30;9.50;42.90
69628;DHT22;56850;51.984;5.088;2023-04-06T00:32:57;9.40;43.00
69628;DHT22;56850;51.984;5.088;2023-04-06T00:35:24;9.40;43.00
69628;DHT22;56850;51.984;5.088;2023-04-06T00:37:52;9.40;43.00
69628;DHT22;56850;51.984;5.088;2023-04-06T00:40:19;9.40;43.00
69628;DHT22;56850;51.984;5.088;2023-04-06T00:42:46;9.40;43.00
69628;DHT22;56850;51.984;5.088;2023-04-06T00:45:13;9.40;43.10
69628;DHT22;56850;51.984;5.088;2023-04-06T00:47:40;9.40;43.10
69628;DHT22;56850;51.984;5.088;2023-04-06T00:50:07;9.30;43.20
69628;DHT22;56850;51.984;5.088;2023-04-06T00:52:34;9.40;43.20
69628;DHT22;56850;51.984;5.088;2023-04-06T00:55:03;9.30;43.30
69628;DHT22;56850;51.984;5.088;2023-04-06T00:57:32;9.30;43.40
69628;DHT22;56850;51.984;5.088;2023-04-06T00:59:59;9.30;43.40
69628;DHT22;56850;51.984;5.088;2023-04-06T01:02:26;9.30;43.40
69628;DHT22;56850;51.984;5.088;2023-04-06T01:04:54;9.30;43.40
69628;DHT22;56850;51.984;5.088;2023-04-06T01:07:34;9.20;43.50
69628;DHT22;56850;51.984;5.088;2023-04-06T01:10:09;9.20;43.60
69628;DHT22;56850;51.984;5.088;2023-04-06T01:12:37;9.20;43.70
69628;DHT22;56850;51.984;5.088;2023-04-06T01:15:12;9.20;43.70
69628;DHT22;56850;51.984;5.088;2023-04-06T01:17:43;9.10;43.70
69628;DHT22;56850;51.984;5.088;2023-04-06T01:20:14;9.10;43.80
69628;DHT22;56850;51.984;5.088;2023-04-06T01:22:41;9.10;43.80
69628;DHT22;56850;51.984;5.088;2023-04-06T01:25:11;9.00;43.90
69628;DHT22;56850;51.984;5.088;2023-04-06T01:27:45;9.00;44.00
69628;DHT22;56850;51.984;5.088;2023-04-06T01:30:12;9.00;44.10
69628;DHT22;56850;51.984;5.088;2023-04-06T01:32:52;9.00;44.10
69628;DHT22;56850;51.984;5.088;2023-04-06T01:35:51;9.00;44.10
69628;DHT22;56850;51.984;5.088;2023-04-06T01:38:19;9.00;44.20
69628;DHT22;56850;51.984;5.088;2023-04-06T01:40:47;9.00;44.20
69628;DHT22;56850;51.984;5.088;2023-04-06T01:43:17;8.90;44.20
69628;DHT22;56850;51.984;5.088;2023-04-06T01:46:01;8.90;44.20
69628;DHT22;56850;51.984;5.088;2023-04-06T01:48:33;8.90;44.20
69628;DHT22;56850;51.984;5.088;2023-04-06T01:51:07;8.90;44.30
69628;DHT22;56850;51.984;5.088;2023-04-06T01:53:43;8.90;44.20
69628;DHT22;56850;51.984;5.088;2023-04-06T01:56:10;8.90;44.30
69628;DHT22;56850;51.984;5.088;2023-04-06T01:58:43;8.90;44.30
69628;DHT22;56850;51.984;5.088;2023-04-06T02:01:13;8.90;44.30
69628;DHT22;56850;51.984;5.088;2023-04-06T02:03:50;8.90;44.30
69628;DHT22;56850;51.984;5.088;2023-04-06T02:06:18;8.80;44.40
69628;DHT22;56850;51.984;5.088;2023-04-06T02:08:45;8.80;44.50
69628;DHT22;56850;51.984;5.088;2023-04-06T02:11:12;8.80;44.50
69628;DHT22;56850;51.984;5.088;2023-04-06T02:13:44;8.70;44.60
69628;DHT22;56850;51.984;5.088;2023-04-06T02:16:11;8.70;44.70
69628;DHT22;56850;51.984;5.088;2023-04-06T02:18:38;8.70;44.80
69628;DHT22;56850;51.984;5.088;2023-04-06T02:21:05;8.70;44.80
69628;DHT22;56850;51.984;5.088;2023-04-06T02:23:32;8.70;44.90
69628;DHT22;56850;51.984;5.088;2023-04-06T02:25:59;8.70;45.00
69628;DHT22;56850;51.984;5.088;2023-04-06T02:28:26;8.80;44.90
69628;DHT22;56850;51.984;5.088;2023-04-06T02:30:53;8.80;45.00
69628;DHT22;56850;51.984;5.088;2023-04-06T02:33:24;8.80;45.00
69628;DHT22;56850;51.984;5.088;2023-04-06T02:35:51;8.80;45.10
69628;DHT22;56850;51.984;5.088;2023-04-06T02:38:18;8.80;45.10
69628;DHT22;56850;51.984;5.088;2023-04-06T02:40:45;8.80;45.10
69628;DHT22;56850;51.984;5.088;2023-04-06T02:43:24;8.80;45.20
69628;DHT22;56850;51.984;5.088;2023-04-06T02:45:58;8.80;45.20
69628;DHT22;56850;51.984;5.088;2023-04-06T02:48:25;8.80;45.20
69628;DHT22;56850;51.984;5.088;2023-04-06T02:50:52;8.80;45.30
69628;DHT22;56850;51.984;5.088;2023-04-06T02:53:19;8.80;45.40
69628;DHT22;56850;51.984;5.088;2023-04-06T02:55:46;8.70;45.40
69628;DHT22;56850;51.984;5.088;2023-04-06T02:58:13;8.70;45.50
69628;DHT22;56850;51.984;5.088;2023-04-06T03:00:47;8.70;45.60
69628;DHT22;56850;51.984;5.088;2023-04-06T03:03:14;8.70;45.70
69628;DHT22;56850;51.984;5.088;2023-04-06T03:05:43;8.60;45.70
69628;DHT22;56850;51.984;5.088;2023-04-06T03:08:10;8.60;45.90
69628;DHT22;56850;51.984;5.088;2023-04-06T03:10:41;8.60;45.90
69628;DHT22;56850;51.984;5.088;2023-04-06T03:13:08;8.50;46.00
69628;DHT22;56850;51.984;5.088;2023-04-06T03:15:47;8.50;46.20
69628;DHT22;56850;51.984;5.088;2023-04-06T03:18:21;8.50;46.20
69628;DHT22;56850;51.984;5.088;2023-04-06T03:20:50;8.50;46.40
69628;DHT22;56850;51.984;5.088;2023-04-06T03:23:18;8.50;46.40
69628;DHT22;56850;51.984;5.088;2023-04-06T03:25:51;8.50;46.50
69628;DHT22;56850;51.984;5.088;2023-04-06T03:28:19;8.40;46.60
69628;DHT22;56850;51.984;5.088;2023-04-06T03:30:53;8.40;46.60
69628;DHT22;56850;51.984;5.088;2023-04-06T03:33:36;8.40;46.80
69628;DHT22;56850;51.984;5.088;2023-04-06T03:36:03;8.40;46.80
69628;DHT22;56850;51.984;5.088;2023-04-06T03:38:35;8.30;47.00
69628;DHT22;56850;51.984;5.088;2023-04-06T03:41:09;8.30;47.10
69628;DHT22;56850;51.984;5.088;2023-04-06T03:43:38;8.30;47.20
69628;DHT22;56850;51.984;5.088;2023-04-06T03:46:05;8.30;47.30
69628;DHT22;56850;51.984;5.088;2023-04-06T03:48:32;8.30;47.30
69628;DHT22;56850;51.984;5.088;2023-04-06T03:51:02;8.30;47.40
69628;DHT22;56850;51.984;5.088;2023-04-06T03:53:29;8.30;47.40
69628;DHT22;56850;51.984;5.088;2023-04-06T03:55:56;8.30;47.50
69628;DHT22;56850;51.984;5.088;2023-04-06T03:58:23;8.30;47.60
69628;DHT22;56850;51.984;5.088;2023-04-06T04:00:51;8.30;47.70
69628;DHT22;56850;51.984;5.088;2023-04-06T04:03:18;8.20;47.80
69628;DHT22;56850;51.984;5.088;2023-04-06T04:05:46;8.30;47.80
69628;DHT22;56850;51.984;5.088;2023-04-06T04:08:13;8.30;47.90
69628;DHT22;56850;51.984;5.088;2023-04-06T04:10:40;8.30;47.90
69628;DHT22;56850;51.984;5.088;2023-04-06T04:13:07;8.30;47.90
69628;DHT22;56850;51.984;5.088;2023-04-06T04:15:34;8.20;47.90
69628;DHT22;56850;51.984;5.088;2023-04-06T04:18:01;8.20;48.00
69628;DHT22;56850;51.984;5.088;2023-04-06T04:20:28;8.20;48.10
69628;DHT22;56850;51.984;5.088;2023-04-06T04:22:55;8.20;48.20
69628;DHT22;56850;51.984;5.088;2023-04-06T04:25:22;8.20;48.20
69628;DHT22;56850;51.984;5.088;2023-04-06T04:27:49;8.30;48.20
69628;DHT22;56850;51.984;5.088;2023-04-06T04:30:19;8.30;48.20
69628;DHT22;56850;51.984;5.088;2023-04-06T04:32:46;8.30;48.20
69628;DHT22;56850;51.984;5.088;2023-04-06T04:35:16;8.20;48.20
69628;DHT22;56850;51.984;5.088;2023-04-06T04:37:43;8.20;48.20
69628;DHT22;56850;51.984;5.088;2023-04-06T04:40:11;8.20;48.30
69628;DHT22;56850;51.984;5.088;2023-04-06T04:42:49;8.20;48.40
69628;DHT22;56850;51.984;5.088;2023-04-06T04:45:33;8.20;48.40
69628;DHT22;56850;51.984;5.088;2023-04-06T04:48:11;8.20;48.40
69628;DHT22;56850;51.984;5.088;2023-04-06T04:50:49;8.20;48.50
69628;DHT22;56850;51.984;5.088;2023-04-06T04:53:17;8.20;48.50
69628;DHT22;56850;51.984;5.088;2023-04-06T04:55:45;8.20;48.50
69628;DHT22;56850;51.984;5.088;2023-04-06T04:58:13;8.20;48.60
69628;DHT22;56850;51.984;5.088;2023-04-06T05:00:54;8.30;48.60
69628;DHT22;56850;51.984;5.088;2023-04-06T05:03:23;8.30;48.70
69628;DHT22;56850;51.984;5.088;2023-04-06T05:05:58;8.30;48.70
69628;DHT22;56850;51.984;5.088;2023-04-06T05:08:29;8.30;48.70
69628;DHT22;56850;51.984;5.088;2023-04-06T05:10:56;8.30;48.70
69628;DHT22;56850;51.984;5.088;2023-04-06T05:13:24;8.20;48.80
69628;DHT22;56850;51.984;5.088;2023-04-06T05:15:53;8.30;48.80
69628;DHT22;56850;51.984;5.088;2023-04-06T05:18:27;8.20;48.90
69628;DHT22;56850;51.984;5.088;2023-04-06T05:20:55;8.20;49.00
69628;DHT22;56850;51.984;5.088;2023-04-06T05:23:30;8.20;49.00
69628;DHT22;56850;51.984;5.088;2023-04-06T05:26:00;8.20;49.00
69628;DHT22;56850;51.984;5.088;2023-04-06T05:28:27;8.20;49.10
69628;DHT22;56850;51.984;5.088;2023-04-06T05:30:54;8.20;49.10
69628;DHT22;56850;51.984;5.088;2023-04-06T05:33:21;8.20;49.20
69628;DHT22;56850;51.984;5.088;2023-04-06T05:36:02;8.20;49.30
69628;DHT22;56850;51.984;5.088;2023-04-06T05:38:30;8.20;49.20
69628;DHT22;56850;51.984;5.088;2023-04-06T05:41:03;8.20;49.30
69628;DHT22;56850;51.984;5.088;2023-04-06T05:43:32;8.20;49.30
69628;DHT22;56850;51.984;5.088;2023-04-06T05:46:00;8.20;49.30
69628;DHT22;56850;51.984;5.088;2023-04-06T05:48:27;8.30;49.30
69628;DHT22;56850;51.984;5.088;2023-04-06T05:50:54;8.20;49.40
69628;DHT22;56850;51.984;5.088;2023-04-06T05:53:28;8.20;49.50
69628;DHT22;56850;51.984;5.088;2023-04-06T05:56:02;8.20;49.50
69628;DHT22;56850;51.984;5.088;2023-04-06T05:58:30;8.20;49.60
69628;DHT22;56850;51.984;5.088;2023-04-06T06:01:01;8.20;49.60
69628;DHT22;56850;51.984;5.088;2023-04-06T06:03:37;8.10;49.80
69628;DHT22;56850;51.984;5.088;2023-04-06T06:06:05;8.10;49.90
69628;DHT22;56850;51.984;5.088;2023-04-06T06:08:52;8.10;50.00
69628;DHT22;56850;51.984;5.088;2023-04-06T06:11:19;8.10;50.20
69628;DHT22;56850;51.984;5.088;2023-04-06T06:13:48;8.10;50.30
69628;DHT22;56850;51.984;5.088;2023-04-06T06:16:18;8.10;50.40
69628;DHT22;56850;51.984;5.088;2023-04-06T06:18:47;8.10;50.50
69628;DHT22;56850;51.984;5.088;2023-04-06T06:21:14;8.10;50.60
69628;DHT22;56850;51.984;5.088;2023-04-06T06:23:42;8.20;50.70
69628;DHT22;56850;51.984;5.088;2023-04-06T06:26:13;8.20;50.80
69628;DHT22;56850;51.984;5.088;2023-04-06T06:28:40;8.20;50.80
69628;DHT22;56850;51.984;5.088;2023-04-06T06:31:09;8.30;51.00
69628;DHT22;56850;51.984;5.088;2023-04-06T06:33:37;8.30;51.10
69628;DHT22;56850;51.984;5.088;2023-04-06T06:36:04;8.20;51.30
69628;DHT22;56850;51.984;5.088;2023-04-06T06:38:31;8.30;51.40
69628;DHT22;56850;51.984;5.088;2023-04-06T06:40:58;8.30;51.50
69628;DHT22;56850;51.984;5.088;2023-04-06T06:43:28;8.30;51.60
69628;DHT22;56850;51.984;5.088;2023-04-06T06:45:59;8.30;51.70
69628;DHT22;56850;51.984;5.088;2023-04-06T06:48:26;8.30;51.90
69628;DHT22;56850;51.984;5.088;2023-04-06T06:50:53;8.30;52.00
69628;DHT22;56850;51.984;5.088;2023-04-06T06:53:20;8.40;52.10
69628;DHT22;56850;51.984;5.088;2023-04-06T06:55:47;8.40;52.10
69628;DHT22;56850;51.984;5.088;2023-04-06T06:58:20;8.40;52.00
69628;DHT22;56850;51.984;5.088;2023-04-06T07:00:47;8.40;52.00
69628;DHT22;56850;51.984;5.088;2023-04-06T07:03:15;8.50;52.00
69628;DHT22;56850;51.984;5.088;2023-04-06T07:05:46;8.50;52.10
69628;DHT22;56850;51.984;5.088;2023-04-06T07:08:16;8.50;52.00
69628;DHT22;56850;51.984;5.088;2023-04-06T07:10:43;8.60;52.00
69628;DHT22;56850;51.984;5.088;2023-04-06T07:13:10;8.60;51.90
69628;DHT22;56850;51.984;5.088;2023-04-06T07:15:37;8.60;52.00
69628;DHT22;56850;51.984;5.088;2023-04-06T07:18:04;8.70;52.00
69628;DHT22;56850;51.984;5.088;2023-04-06T07:20:31;8.70;51.90
69628;DHT22;56850;51.984;5.088;2023-04-06T07:22:58;8.70;52.00
69628;DHT22;56850;51.984;5.088;2023-04-06T07:25:25;8.70;52.10
69628;DHT22;56850;51.984;5.088;2023-04-06T07:27:52;8.70;52.20
69628;DHT22;56850;51.984;5.088;2023-04-06T07:30:22;8.70;52.20
69628;DHT22;56850;51.984;5.088;2023-04-06T07:32:49;8.80;52.30
69628;DHT22;56850;51.984;5.088;2023-04-06T07:35:17;8.80;52.40
69628;DHT22;56850;51.984;5.088;2023-04-06T07:37:44;8.80;52.50
69628;DHT22;56850;51.984;5.088;2023-04-06T07:40:11;8.80;52.60
69628;DHT22;56850;51.984;5.088;2023-04-06T07:42:39;8.80;52.70
69628;DHT22;56850;51.984;5.088;2023-04-06T07:45:07;8.90;52.80
69628;DHT22;56850;51.984;5.088;2023-04-06T07:47:35;8.90;53.00
69628;DHT22;56850;51.984;5.088;2023-04-06T07:50:03;8.90;53.10
69628;DHT22;56850;51.984;5.088;2023-04-06T07:52:31;8.90;53.10
69628;DHT22;56850;51.984;5.088;2023-04-06T07:54:59;8.90;53.20
69628;DHT22;56850;51.984;5.088;2023-04-06T07:57:26;9.00;53.30
69628;DHT22;56850;51.984;5.088;2023-04-06T07:59:53;9.00;53.40
69628;DHT22;56850;51.984;5.088;2023-04-06T08:02:21;9.10;53.50
69628;DHT22;56850;51.984;5.088;2023-04-06T08:04:48;9.10;53.50
69628;DHT22;56850;51.984;5.088;2023-04-06T08:07:15;9.20;53.50
69628;DHT22;56850;51.984;5.088;2023-04-06T08:09:42;9.20;53.60
69628;DHT22;56850;51.984;5.088;2023-04-06T08:12:09;9.20;53.60
69628;DHT22;56850;51.984;5.088;2023-04-06T08:14:36;9.20;53.70
69628;DHT22;56850;51.984;5.088;2023-04-06T08:17:03;9.30;53.80
69628;DHT22;56850;51.984;5.088;2023-04-06T08:19:32;9.30;53.80
69628;DHT22;56850;51.984;5.088;2023-04-06T08:21:59;9.30;54.00
69628;DHT22;56850;51.984;5.088;2023-04-06T08:24:26;9.30;54.10
69628;DHT22;56850;51.984;5.088;2023-04-06T08:26:53;9.40;54.20
69628;DHT22;56850;51.984;5.088;2023-04-06T08:29:20;9.40;54.20
69628;DHT22;56850;51.984;5.088;2023-04-06T08:31:47;9.50;54.30
69628;DHT22;56850;51.984;5.088;2023-04-06T08:34:14;9.50;54.40
69628;DHT22;56850;51.984;5.088;2023-04-06T08:36:42;9.60;54.40
69628;DHT22;56850;51.984;5.088;2023-04-06T08:39:09;9.60;54.30
69628;DHT22;56850;51.984;5.088;2023-04-06T08:41:35;9.60;54.30
69628;DHT22;56850;51.984;5.088;2023-04-06T08:44:02;9.60;54.20
69628;DHT22;56850;51.984;5.088;2023-04-06T08:46:30;9.70;54.30
69628;DHT22;56850;51.984;5.088;2023-04-06T08:48:59;9.70;54.30
69628;DHT22;56850;51.984;5.088;2023-04-06T08:51:28;9.70;54.20
69628;DHT22;56850;51.984;5.088;2023-04-06T08:53:57;9.70;54.20
69628;DHT22;56850;51.984;5.088;2023-04-06T08:56:25;9.70;54.30
69628;DHT22;56850;51.984;5.088;2023-04-06T08:58:53;9.70;54.30
69628;DHT22;56850;51.984;5.088;2023-04-06T09:01:25;9.70;54.40
69628;DHT22;56850;51.984;5.088;2023-04-06T09:03:58;9.70;54.60
69628;DHT22;56850;51.984;5.088;2023-04-06T09:06:27;9.80;54.80
69628;DHT22;56850;51.984;5.088;2023-04-06T09:08:54;9.80;55.00
69628;DHT22;56850;51.984;5.088;2023-04-06T09:11:25;9.80;55.10
69628;DHT22;56850;51.984;5.088;2023-04-06T09:13:54;9.80;55.20
69628;DHT22;56850;51.984;5.088;2023-04-06T09:16:21;9.90;55.50
69628;DHT22;56850;51.984;5.088;2023-04-06T09:18:50;10.00;55.80
69628;DHT22;56850;51.984;5.088;2023-04-06T09:21:20;10.10;56.20
69628;DHT22;56850;51.984;5.088;2023-04-06T09:24:01;10.10;56.40
69628;DHT22;56850;51.984;5.088;2023-04-06T09:26:29;10.20;56.60
69628;DHT22;56850;51.984;5.088;2023-04-06T09:28:57;10.20;56.60
69628;DHT22;56850;51.984;5.088;2023-04-06T09:31:26;10.20;56.80
69628;DHT22;56850;51.984;5.088;2023-04-06T09:33:54;10.20;57.00
69628;DHT22;56850;51.984;5.088;2023-04-06T09:36:33;10.20;57.30
69628;DHT22;56850;51.984;5.088;2023-04-06T09:39:05;10.30;57.50
69628;DHT22;56850;51.984;5.088;2023-04-06T09:41:35;10.30;57.70
69628;DHT22;56850;51.984;5.088;2023-04-06T09:44:03;10.30;58.10
69628;DHT22;56850;51.984;5.088;2023-04-06T09:46:35;10.30;58.30
69628;DHT22;56850;51.984;5.088;2023-04-06T09:49:22;10.30;58.70
69628;DHT22;56850;51.984;5.088;2023-04-06T09:51:54;10.30;58.80
69628;DHT22;56850;51.984;5.088;2023-04-06T09:54:23;10.30;59.00
69628;DHT22;56850;51.984;5.088;2023-04-06T09:57:07;10.30;59.30
69628;DHT22;56850;51.984;5.088;2023-04-06T10:00:05;10.40;59.50
69628;DHT22;56850;51.984;5.088;2023-04-06T10:02:50;10.40;59.60
69628;DHT22;56850;51.984;5.088;2023-04-06T10:08:09;10.30;60.40
69628;DHT22;56850;51.984;5.088;2023-04-06T10:10:37;10.30;60.60
69628;DHT22;56850;51.984;5.088;2023-04-06T10:13:05;10.30;60.80
69628;DHT22;56850;51.984;5.088;2023-04-06T10:15:32;10.40;61.20
69628;DHT22;56850;51.984;5.088;2023-04-06T10:18:00;10.40;61.60
69628;DHT22;56850;51.984;5.088;2023-04-06T10:20:29;10.40;61.80
69628;DHT22;56850;51.984;5.088;2023-04-06T10:25:53;10.40;62.40
69628;DHT22;56850;51.984;5.088;2023-04-06T10:28:22;10.40;62.60
69628;DHT22;56850;51.984;5.088;2023-04-06T10:30:49;10.40;63.00
69628;DHT22;56850;51.984;5.088;2023-04-06T10:33:23;10.40;63.10
69628;DHT22;56850;51.984;5.088;2023-04-06T10:35:50;10.40;63.10
69628;DHT22;56850;51.984;5.088;2023-04-06T10:38:16;10.40;63.20
69628;DHT22;56850;51.984;5.088;2023-04-06T10:40:48;10.40;63.40
69628;DHT22;56850;51.984;5.088;2023-04-06T10:43:19;10.40;63.70
69628;DHT22;56850;51.984;5.088;2023-04-06T10:45:57;10.40;64.40
69628;DHT22;56850;51.984;5.088;2023-04-06T10:48:44;10.30;64.60
69628;DHT22;56850;51.984;5.088;2023-04-06T10:51:17;10.30;64.80
69628;DHT22;56850;51.984;5.088;2023-04-06T10:53:47;10.30;65.10
69628;DHT22;56850;51.984;5.088;2023-04-06T10:56:17;10.30;65.50
69628;DHT22;56850;51.984;5.088;2023-04-06T10:58:49;10.30;65.90
69628;DHT22;56850;51.984;5.088;2023-04-06T11:01:20;10.30;66.00
69628;DHT22;56850;51.984;5.088;2023-04-06T11:03:51;10.40;66.10
69628;DHT22;56850;51.984;5.088;2023-04-06T11:06:26;10.40;66.50
69628;DHT22;56850;51.984;5.088;2023-04-06T11:08:54;10.40;66.60
69628;DHT22;56850;51.984;5.088;2023-04-06T11:11:23;10.40;66.80
69628;DHT22;56850;51.984;5.088;2023-04-06T11:13:54;10.40;66.90
69628;DHT22;56850;51.984;5.088;2023-04-06T11:16:24;10.30;67.30
69628;DHT22;56850;51.984;5.088;2023-04-06T11:18:59;10.30;67.50
69628;DHT22;56850;51.984;5.088;2023-04-06T11:24:14;10.30;68.10
69628;DHT22;56850;51.984;5.088;2023-04-06T11:26:45;10.30;68.50
69628;DHT22;56850;51.984;5.088;2023-04-06T11:29:13;10.30;68.70
69628;DHT22;56850;51.984;5.088;2023-04-06T11:31:41;10.20;68.80
69628;DHT22;56850;51.984;5.088;2023-04-06T11:34:15;10.20;69.20
69628;DHT22;56850;51.984;5.088;2023-04-06T11:36:43;10.20;69.30
69628;DHT22;56850;51.984;5.088;2023-04-06T11:39:18;10.20;69.20
69628;DHT22;56850;51.984;5.088;2023-04-06T11:41:49;10.30;69.20
69628;DHT22;56850;51.984;5.088;2023-04-06T11:44:28;10.30;69.20
69628;DHT22;56850;51.984;5.088;2023-04-06T11:46:57;10.30;69.20
69628;DHT22;56850;51.984;5.088;2023-04-06T11:49:31;10.30;69.20
69628;DHT22;56850;51.984;5.088;2023-04-06T11:52:15;10.40;69.60
69628;DHT22;56850;51.984;5.088;2023-04-06T11:54:42;10.40;69.70
69628;DHT22;56850;51.984;5.088;2023-04-06T11:57:09;10.40;69.70
69628;DHT22;56850;51.984;5.088;2023-04-06T11:59:36;10.40;69.70
69628;DHT22;56850;51.984;5.088;2023-04-06T12:02:04;10.50;69.90
69628;DHT22;56850;51.984;5.088;2023-04-06T12:04:32;10.50;70.10
69628;DHT22;56850;51.984;5.088;2023-04-06T12:06:59;10.50;70.00
69628;DHT22;56850;51.984;5.088;2023-04-06T12:09:26;10.50;70.00
69628;DHT22;56850;51.984;5.088;2023-04-06T12:11:53;10.50;70.00
69628;DHT22;56850;51.984;5.088;2023-04-06T12:14:20;10.50;70.10
69628;DHT22;56850;51.984;5.088;2023-04-06T12:16:47;10.50;70.10
69628;DHT22;56850;51.984;5.088;2023-04-06T12:19:14;10.40;70.20
69628;DHT22;56850;51.984;5.088;2023-04-06T12:21:41;10.40;70.30
69628;DHT22;56850;51.984;5.088;2023-04-06T12:24:09;10.40;70.40
69628;DHT22;56850;51.984;5.088;2023-04-06T12:26:36;10.50;70.60
69628;DHT22;56850;51.984;5.088;2023-04-06T12:29:04;10.40;70.80
69628;DHT22;56850;51.984;5.088;2023-04-06T12:31:36;10.40;71.00
69628;DHT22;56850;51.984;5.088;2023-04-06T12:34:10;10.40;71.10
69628;DHT22;56850;51.984;5.088;2023-04-06T12:36:37;10.40;71.20
69628;DHT22;56850;51.984;5.088;2023-04-06T12:39:05;10.40;71.20
69628;DHT22;56850;51.984;5.088;2023-04-06T12:41:32;10.40;71.30
69628;DHT22;56850;51.984;5.088;2023-04-06T12:43:59;10.40;71.30
69628;DHT22;56850;51.984;5.088;2023-04-06T12:46:27;10.40;71.30
69628;DHT22;56850;51.984;5.088;2023-04-06T12:48:54;10.40;71.30
69628;DHT22;56850;51.984;5.088;2023-04-06T12:51:21;10.40;71.50
69628;DHT22;56850;51.984;5.088;2023-04-06T12:53:48;10.30;71.60
69628;DHT22;56850;51.984;5.088;2023-04-06T12:56:17;10.30;71.70
69628;DHT22;56850;51.984;5.088;2023-04-06T12:58:45;10.30;71.90
69628;DHT22;56850;51.984;5.088;2023-04-06T13:01:12;10.30;72.10
69628;DHT22;56850;51.984;5.088;2023-04-06T13:03:40;10.30;72.10
69628;DHT22;56850;51.984;5.088;2023-04-06T13:06:08;10.30;72.20
69628;DHT22;56850;51.984;5.088;2023-04-06T13:08:35;10.30;72.10
69628;DHT22;56850;51.984;5.088;2023-04-06T13:11:04;10.30;72.20
69628;DHT22;56850;51.984;5.088;2023-04-06T13:13:33;10.30;72.30
69628;DHT22;56850;51.984;5.088;2023-04-06T13:16:07;10.30;72.20
69628;DHT22;56850;51.984;5.088;2023-04-06T13:18:35;10.30;72.30
69628;DHT22;56850;51.984;5.088;2023-04-06T13:21:07;10.30;72.50
69628;DHT22;56850;51.984;5.088;2023-04-06T13:23:34;10.30;72.50
69628;DHT22;56850;51.984;5.088;2023-04-06T13:26:06;10.30;72.70
69628;DHT22;56850;51.984;5.088;2023-04-06T13:28:35;10.20;72.80
69628;DHT22;56850;51.984;5.088;2023-04-06T13:31:03;10.20;73.00
69628;DHT22;56850;51.984;5.088;2023-04-06T13:33:30;10.30;73.10
69628;DHT22;56850;51.984;5.088;2023-04-06T13:35:58;10.20;73.20
69628;DHT22;56850;51.984;5.088;2023-04-06T13:38:25;10.20;73.30
69628;DHT22;56850;51.984;5.088;2023-04-06T13:40:52;10.20;73.40
69628;DHT22;56850;51.984;5.088;2023-04-06T13:43:19;10.20;73.60
69628;DHT22;56850;51.984;5.088;2023-04-06T13:45:51;10.20;73.70
69628;DHT22;56850;51.984;5.088;2023-04-06T13:48:19;10.20;73.60
69628;DHT22;56850;51.984;5.088;2023-04-06T13:50:46;10.20;73.70
69628;DHT22;56850;51.984;5.088;2023-04-06T13:53:16;10.20;73.80
69628;DHT22;56850;51.984;5.088;2023-04-06T13:55:55;10.20;73.90
69628;DHT22;56850;51.984;5.088;2023-04-06T13:58:22;10.20;73.90
69628;DHT22;56850;51.984;5.088;2023-04-06T14:00:49;10.10;73.90
69628;DHT22;56850;51.984;5.088;2023-04-06T14:03:16;10.10;74.20
69628;DHT22;56850;51.984;5.088;2023-04-06T14:05:45;10.10;74.20
69628;DHT22;56850;51.984;5.088;2023-04-06T14:08:12;10.10;74.10
69628;DHT22;56850;51.984;5.088;2023-04-06T14:10:40;10.10;74.40
69628;DHT22;56850;51.984;5.088;2023-04-06T14:13:09;10.00;74.60
69628;DHT22;56850;51.984;5.088;2023-04-06T14:15:36;10.00;74.70
69628;DHT22;56850;51.984;5.088;2023-04-06T14:18:03;10.00;74.80
69628;DHT22;56850;51.984;5.088;2023-04-06T14:20:34;9.90;74.90
69628;DHT22;56850;51.984;5.088;2023-04-06T14:23:01;9.90;75.00
69628;DHT22;56850;51.984;5.088;2023-04-06T14:25:28;9.90;75.10
69628;DHT22;56850;51.984;5.088;2023-04-06T14:27:57;9.90;75.20
69628;DHT22;56850;51.984;5.088;2023-04-06T14:30:25;9.90;75.50
69628;DHT22;56850;51.984;5.088;2023-04-06T14:32:52;9.90;75.50
69628;DHT22;56850;51.984;5.088;2023-04-06T14:35:19;9.90;75.80
69628;DHT22;56850;51.984;5.088;2023-04-06T14:37:46;9.80;76.00
69628;DHT22;56850;51.984;5.088;2023-04-06T14:40:14;9.80;76.10
69628;DHT22;56850;51.984;5.088;2023-04-06T14:42:41;9.80;76.10
69628;DHT22;56850;51.984;5.088;2023-04-06T14:45:09;9.80;76.30
69628;DHT22;56850;51.984;5.088;2023-04-06T14:47:36;9.80;76.50
69628;DHT22;56850;51.984;5.088;2023-04-06T14:50:03;9.80;76.60
69628;DHT22;56850;51.984;5.088;2023-04-06T14:52:30;9.80;76.80
69628;DHT22;56850;51.984;5.088;2023-04-06T14:54:58;9.70;76.90
69628;DHT22;56850;51.984;5.088;2023-04-06T14:57:25;9.70;77.00
69628;DHT22;56850;51.984;5.088;2023-04-06T14:59:53;9.70;76.80
69628;DHT22;56850;51.984;5.088;2023-04-06T15:02:26;9.80;77.00
69628;DHT22;56850;51.984;5.088;2023-04-06T15:04:56;9.80;76.90
69628;DHT22;56850;51.984;5.088;2023-04-06T15:07:24;9.90;76.90
69628;DHT22;56850;51.984;5.088;2023-04-06T15:09:52;9.80;76.80
69628;DHT22;56850;51.984;5.088;2023-04-06T15:12:19;9.90;76.90
69628;DHT22;56850;51.984;5.088;2023-04-06T15:14:45;9.80;77.00
69628;DHT22;56850;51.984;5.088;2023-04-06T15:17:12;9.80;77.10
69628;DHT22;56850;51.984;5.088;2023-04-06T15:19:39;9.80;77.20
69628;DHT22;56850;51.984;5.088;2023-04-06T15:22:06;9.80;77.20
69628;DHT22;56850;51.984;5.088;2023-04-06T15:24:33;9.80;77.30
69628;DHT22;56850;51.984;5.088;2023-04-06T15:27:01;9.80;77.50
69628;DHT22;56850;51.984;5.088;2023-04-06T15:29:33;9.80;77.50
69628;DHT22;56850;51.984;5.088;2023-04-06T15:32:01;9.80;77.60
69628;DHT22;56850;51.984;5.088;2023-04-06T15:34:30;9.80;77.60
69628;DHT22;56850;51.984;5.088;2023-04-06T15:37:02;9.80;77.50
69628;DHT22;56850;51.984;5.088;2023-04-06T15:39:31;9.80;77.60
69628;DHT22;56850;51.984;5.088;2023-04-06T15:41:58;9.80;77.50
69628;DHT22;56850;51.984;5.088;2023-04-06T15:44:25;9.80;77.50
69628;DHT22;56850;51.984;5.088;2023-04-06T15:46:52;9.80;77.50
69628;DHT22;56850;51.984;5.088;2023-04-06T15:49:19;9.90;77.40
69628;DHT22;56850;51.984;5.088;2023-04-06T15:51:48;9.90;77.50
69628;DHT22;56850;51.984;5.088;2023-04-06T15:54:15;9.80;77.50
69628;DHT22;56850;51.984;5.088;2023-04-06T15:56:43;9.80;77.70
69628;DHT22;56850;51.984;5.088;2023-04-06T15:59:10;9.80;77.80
69628;DHT22;56850;51.984;5.088;2023-04-06T16:01:37;9.80;77.80
69628;DHT22;56850;51.984;5.088;2023-04-06T16:04:07;9.80;77.90